createdAt,value
2022-09-12T00:01:30.259Z,98989.20
2022-09-12T00:04:02.097Z,98994.52
2022-09-12T00:06:33.219Z,98995.38
2022-09-12T00:09:05.285Z,98996.26
2022-09-12T00:11:39.397Z,98995.63
2022-09-12T00:14:09.414Z,98996.70
2022-09-12T00:16:38.981Z,98996.77
2022-09-12T00:19:08.550Z,98995.38
2022-09-12T00:21:38.748Z,98992.16
2022-09-12T00:24:07.410Z,98987.11
2022-09-12T00:26:35.710Z,98984.42
2022-09-12T00:29:04.313Z,98990.23
2022-09-12T00:31:32.521Z,98991.31
2022-09-12T00:34:01.973Z,98988.88
2022-09-12T00:36:30.950Z,98990.17
2022-09-12T00:38:59.242Z,98991.35
2022-09-12T00:41:30.695Z,98992.38
2022-09-12T00:44:01.835Z,98993.10
2022-09-12T00:47:14.759Z,98995.06
2022-09-12T00:49:52.456Z,98994.80
2022-09-12T00:52:33.634Z,98997.77
2022-09-12T00:55:07.849Z,99000.64
2022-09-12T00:57:48.312Z,99001.50
2022-09-12T01:00:20.070Z,98998.55
2022-09-12T01:02:53.874Z,98999.12
2022-09-12T01:05:24.200Z,98996.74
2022-09-12T01:07:53.500Z,98996.90
2022-09-12T01:10:22.391Z,98999.13
2022-09-12T01:12:50.981Z,99000.91
2022-09-12T01:15:19.441Z,98996.90
2022-09-12T01:18:09.235Z,99000.58
2022-09-12T01:21:03.829Z,98999.19
2022-09-12T01:23:41.013Z,98999.95
2022-09-12T01:26:46.154Z,98995.60
2022-09-12T01:29:40.340Z,98999.08
2022-09-12T01:32:30.049Z,98998.05
2022-09-12T01:35:21.434Z,98997.90
2022-09-12T01:37:58.926Z,99002.52
2022-09-12T01:41:14.613Z,99002.75
2022-09-12T01:44:22.010Z,99001.69
2022-09-12T01:47:12.299Z,99005.22
2022-09-12T01:49:40.371Z,99002.69
2022-09-12T01:52:38.036Z,99007.78
2022-09-12T01:55:21.057Z,99009.01
2022-09-12T01:58:14.936Z,99012.17
2022-09-12T02:01:09.488Z,99009.57
2022-09-12T02:03:47.739Z,99012.14
2022-09-12T02:06:23.257Z,99009.20
2022-09-12T02:08:55.279Z,99009.21
2022-09-12T02:11:23.304Z,99007.10
2022-09-12T02:14:04.089Z,99009.02
2022-09-12T02:16:46.546Z,99007.77
2022-09-12T02:19:23.291Z,99011.23
2022-09-12T02:21:58.406Z,99011.39
2022-09-12T02:24:34.263Z,99013.19
2022-09-12T02:27:14.312Z,99012.15
2022-09-12T02:29:45.135Z,99009.02
2022-09-12T02:32:27.965Z,99007.27
2022-09-12T02:35:00.337Z,99007.95
2022-09-12T02:37:56.351Z,99002.66
2022-09-12T02:40:25.923Z,99003.73
2022-09-12T02:42:54.146Z,99001.49
2022-09-12T02:45:23.550Z,99003.42
2022-09-12T02:47:58.992Z,99004.84
2022-09-12T02:50:28.088Z,99005.06
2022-09-12T02:53:00.076Z,99001.69
2022-09-12T02:55:30.681Z,99003.07
2022-09-12T02:58:00.186Z,99004.50
2022-09-12T03:00:33.457Z,99007.22
2022-09-12T03:03:45.175Z,99008.16
2022-09-12T03:06:18.776Z,99009.80
2022-09-12T03:09:11.630Z,99009.98
2022-09-12T03:11:52.474Z,99017.08
2022-09-12T03:14:46.978Z,99014.35
2022-09-12T03:17:31.446Z,99015.75
2022-09-12T03:20:10.986Z,99017.67
2022-09-12T03:22:53.995Z,99011.21
2022-09-12T03:25:32.409Z,99013.64
2022-09-12T03:28:13.498Z,99013.24
2022-09-12T03:30:44.484Z,99014.48
2022-09-12T03:33:14.249Z,99020.14
2022-09-12T03:35:43.856Z,99017.21
2022-09-12T03:38:12.132Z,99025.84
2022-09-12T03:40:40.411Z,99025.02
2022-09-12T03:43:09.769Z,99025.36
2022-09-12T03:45:38.595Z,99028.52
2022-09-12T03:48:06.679Z,99033.08
2022-09-12T03:50:34.947Z,99034.27
2022-09-12T03:53:04.158Z,99033.78
2022-09-12T03:55:32.422Z,99037.83
2022-09-12T03:58:00.614Z,99039.02
2022-09-12T04:00:28.872Z,99036.67
2022-09-12T04:02:57.777Z,99041.00
2022-09-12T04:05:26.522Z,99044.48
2022-09-12T04:07:54.728Z,99044.66
2022-09-12T04:10:22.897Z,99047.61
2022-09-12T04:12:52.608Z,99049.41
2022-09-12T04:15:20.886Z,99051.45
2022-09-12T04:17:48.955Z,99054.52
2022-09-12T04:20:17.027Z,99051.55
2022-09-12T04:22:45.098Z,99054.05
2022-09-12T04:25:14.193Z,99058.63
2022-09-12T04:27:42.269Z,99062.33
2022-09-12T04:30:11.207Z,99058.52
2022-09-12T04:32:39.635Z,99059.39
2022-09-12T04:35:07.943Z,99059.85
2022-09-12T04:37:36.087Z,99064.57
2022-09-12T04:40:04.623Z,99063.17
2022-09-12T04:42:32.741Z,99062.71
2022-09-12T04:45:00.816Z,99061.17
2022-09-12T04:47:29.088Z,99063.09
2022-09-12T04:49:57.160Z,99063.95
2022-09-12T04:52:25.232Z,99067.19
2022-09-12T04:54:53.610Z,99063.84
2022-09-12T04:57:22.398Z,99064.77
2022-09-12T04:59:50.784Z,99067.96
2022-09-12T05:02:18.971Z,99067.95
2022-09-12T05:04:47.227Z,99070.08
2022-09-12T05:07:15.299Z,99070.25
2022-09-12T05:09:43.370Z,99071.10
2022-09-12T05:12:11.852Z,99073.35
2022-09-12T05:14:40.843Z,99076.49
2022-09-12T05:17:09.311Z,99077.77
2022-09-12T05:19:37.907Z,99081.09
2022-09-12T05:22:06.900Z,99081.09
2022-09-12T05:24:35.382Z,99076.34
2022-09-12T05:27:04.993Z,99079.60
2022-09-12T05:29:34.396Z,99078.36
2022-09-12T05:32:03.681Z,99081.54
2022-09-12T05:34:31.763Z,99080.64
2022-09-12T05:36:59.835Z,99083.83
2022-09-12T05:39:28.011Z,99083.80
2022-09-12T05:41:56.695Z,99084.28
2022-09-12T05:44:25.482Z,99079.15
2022-09-12T05:46:53.964Z,99083.14
2022-09-12T05:49:22.035Z,99083.48
2022-09-12T05:51:51.847Z,99081.73
2022-09-12T05:54:21.049Z,99079.42
2022-09-12T05:56:49.480Z,99076.26
2022-09-12T05:59:22.104Z,99079.70
2022-09-12T06:01:50.278Z,99081.15
2022-09-12T06:04:18.655Z,99083.86
2022-09-12T06:06:47.136Z,99083.36
2022-09-12T06:09:16.782Z,99081.96
2022-09-12T06:11:46.563Z,99081.63
2022-09-12T06:14:17.799Z,99085.45
2022-09-12T06:16:47.454Z,99087.89
2022-09-12T06:19:22.136Z,99090.16
2022-09-12T06:21:51.948Z,99086.36
2022-09-12T06:24:22.273Z,99082.85
2022-09-12T06:26:52.950Z,99086.90
2022-09-12T06:29:22.102Z,99090.77
2022-09-12T06:31:50.173Z,99094.08
2022-09-12T06:34:18.450Z,99093.02
2022-09-12T06:36:49.183Z,99093.63
2022-09-12T06:39:20.225Z,99095.90
2022-09-12T06:41:49.347Z,99093.80
2022-09-12T06:44:20.667Z,99095.87
2022-09-12T06:46:49.637Z,99098.90
2022-09-12T06:49:17.984Z,99095.69
2022-09-12T06:51:46.114Z,99095.61
2022-09-12T06:54:17.360Z,99096.05
2022-09-12T06:56:45.844Z,99100.14
2022-09-12T06:59:14.222Z,99103.03
2022-09-12T07:01:42.683Z,99106.80
2022-09-12T07:04:10.874Z,99105.92
2022-09-12T07:06:41.515Z,99109.77
2022-09-12T07:09:12.645Z,99108.97
2022-09-12T07:11:42.356Z,99106.06
2022-09-12T07:14:13.295Z,99108.19
2022-09-12T07:16:41.921Z,99111.48
2022-09-12T07:19:11.104Z,99112.73
2022-09-12T07:21:42.324Z,99116.77
2022-09-12T07:24:11.114Z,99114.64
2022-09-12T07:26:42.503Z,99117.96
2022-09-12T07:32:06.704Z,99123.02
2022-09-12T07:34:35.818Z,99122.02
2022-09-12T07:37:04.733Z,99119.45
2022-09-12T07:39:32.792Z,99127.02
2022-09-12T07:42:01.196Z,99135.21
2022-09-12T07:44:31.014Z,99131.99
2022-09-12T07:46:59.188Z,99134.20
2022-09-12T07:49:27.359Z,99141.64
2022-09-12T07:51:55.428Z,99146.33
2022-09-12T07:54:23.602Z,99147.02
2022-09-12T07:56:52.082Z,99146.41
2022-09-12T07:59:35.653Z,99146.09
2022-09-12T08:02:17.416Z,99142.84
2022-09-12T08:04:47.923Z,99142.23
2022-09-12T08:07:16.511Z,99145.30
2022-09-12T08:09:44.594Z,99142.34
2022-09-12T08:12:12.768Z,99142.39
2022-09-12T08:14:40.841Z,99144.02
2022-09-12T08:17:09.012Z,99146.02
2022-09-12T08:19:37.190Z,99144.73
2022-09-12T08:22:05.770Z,99147.20
2022-09-12T08:24:34.353Z,99150.88
2022-09-12T08:27:02.425Z,99150.23
2022-09-12T08:29:30.602Z,99151.02
2022-09-12T08:31:58.772Z,99147.67
2022-09-12T08:34:27.253Z,99145.14
2022-09-12T08:36:55.530Z,99142.38
2022-09-12T08:39:24.852Z,99141.23
2022-09-12T08:42:14.807Z,99138.98
2022-09-12T08:44:49.030Z,99146.27
2022-09-12T08:47:19.867Z,99153.05
2022-09-12T08:50:09.858Z,99154.98
2022-09-12T08:52:59.836Z,99157.34
2022-09-12T08:55:41.734Z,99162.02
2022-09-12T08:58:25.638Z,99157.64
2022-09-12T09:01:21.041Z,99155.16
2022-09-12T09:04:28.891Z,99142.72
2022-09-12T09:06:58.599Z,99144.59
2022-09-12T09:09:43.158Z,99147.52
2022-09-12T09:12:21.061Z,99149.02
2022-09-12T09:14:51.903Z,99149.88
2022-09-12T09:17:20.479Z,99143.98
2022-09-12T09:20:06.061Z,99140.46
2022-09-12T09:22:46.728Z,99139.42
2022-09-12T09:25:49.615Z,99138.38
2022-09-12T09:28:30.201Z,99137.07
2022-09-12T09:30:58.758Z,99140.59
2022-09-12T09:33:33.311Z,99139.19
2022-09-12T09:36:17.231Z,99140.09
2022-09-12T09:39:00.150Z,99141.28
2022-09-12T09:41:50.033Z,99148.48
2022-09-12T09:44:18.769Z,99146.85
2022-09-12T09:46:58.344Z,99147.83
2022-09-12T09:49:32.063Z,99142.15
2022-09-12T09:52:01.911Z,99143.16
2022-09-12T09:54:54.524Z,99145.53
2022-09-12T09:57:34.473Z,99143.41
2022-09-12T10:00:32.059Z,99145.94
2022-09-12T10:03:25.694Z,99147.90
2022-09-12T10:05:57.316Z,99148.01
2022-09-12T10:08:35.585Z,99147.05
2022-09-12T10:11:05.070Z,99149.43
2022-09-12T10:13:57.715Z,99152.14
2022-09-12T10:16:30.026Z,99153.42
2022-09-12T10:19:01.650Z,99150.23
2022-09-12T10:21:55.021Z,99152.93
2022-09-12T10:24:38.036Z,99151.31
2022-09-12T10:27:15.117Z,99153.88
2022-09-12T10:30:02.157Z,99154.63
2022-09-12T10:32:38.798Z,99158.91
2022-09-12T10:35:17.864Z,99161.77
2022-09-12T10:38:02.702Z,99162.69
2022-09-12T10:40:36.405Z,99164.69
2022-09-12T10:43:25.672Z,99169.48
2022-09-12T10:45:58.964Z,99171.14
2022-09-12T10:48:31.953Z,99173.94
2022-09-12T10:51:01.149Z,99169.63
2022-09-12T10:53:40.676Z,99172.59
2022-09-12T10:56:10.400Z,99175.75
2022-09-12T10:58:47.534Z,99177.73
2022-09-12T11:01:44.480Z,99175.43
2022-09-12T11:04:38.006Z,99176.14
2022-09-12T11:07:30.648Z,99172.65
2022-09-12T11:10:10.597Z,99171.36
2022-09-12T11:13:03.247Z,99169.90
2022-09-12T11:15:50.198Z,99168.04
2022-09-12T11:18:21.200Z,99165.36
2022-09-12T11:20:58.487Z,99161.27
2022-09-12T11:23:35.611Z,99166.87
2022-09-12T11:26:22.381Z,99164.02
2022-09-12T11:29:29.160Z,99167.64
2022-09-12T11:32:37.270Z,99162.09
2022-09-12T11:35:25.924Z,99162.88
2022-09-12T11:37:57.273Z,99165.55
2022-09-12T11:40:46.232Z,99163.53
2022-09-12T11:43:36.832Z,99163.70
2022-09-12T11:46:34.191Z,99163.96
2022-09-12T11:49:15.266Z,99165.84
2022-09-12T11:51:43.235Z,99172.95
2022-09-12T11:54:19.685Z,99171.07
2022-09-12T11:56:52.076Z,99169.66
2022-09-12T11:59:33.152Z,99165.71
2022-09-12T12:02:03.966Z,99167.22
2022-09-12T12:04:56.230Z,99167.67
2022-09-12T12:07:24.195Z,99165.67
2022-09-12T12:09:53.193Z,99167.50
2022-09-12T12:12:26.277Z,99167.71
2022-09-12T12:14:56.640Z,99167.08
2022-09-12T12:17:26.624Z,99165.88
2022-09-12T12:20:05.576Z,99166.45
2022-09-12T12:22:35.051Z,99164.53
2022-09-12T12:25:29.424Z,99164.52
2022-09-12T12:28:02.737Z,99166.79
2022-09-12T12:30:30.703Z,99167.12
2022-09-12T12:33:20.174Z,99166.38
2022-09-12T12:36:00.227Z,99167.20
2022-09-12T12:38:31.167Z,99166.48
2022-09-12T12:41:17.582Z,99171.17
2022-09-12T12:43:51.270Z,99168.69
2022-09-12T12:46:21.525Z,99169.88
2022-09-12T12:48:49.666Z,99173.33
2022-09-12T12:51:30.108Z,99173.10
2022-09-12T12:54:01.171Z,99173.21
2022-09-12T12:56:42.883Z,99173.17
2022-09-12T12:59:30.146Z,99170.87
2022-09-12T13:02:00.220Z,99175.06
2022-09-12T13:04:31.854Z,99172.57
2022-09-12T13:07:09.228Z,99172.17
2022-09-12T13:09:44.894Z,99171.59
2022-09-12T13:12:21.977Z,99173.15
2022-09-12T13:14:53.920Z,99176.83
2022-09-12T13:17:42.494Z,99179.25
2022-09-12T13:20:29.658Z,99177.67
2022-09-12T13:22:58.600Z,99174.52
2022-09-12T13:25:33.108Z,99177.19
2022-09-12T13:28:12.153Z,99175.06
2022-09-12T13:30:45.185Z,99171.88
2022-09-12T13:33:22.284Z,99171.68
2022-09-12T13:36:28.694Z,99169.73
2022-09-12T13:39:14.683Z,99170.77
2022-09-12T13:42:04.544Z,99173.25
2022-09-12T13:44:43.725Z,99169.58
2022-09-12T13:47:27.639Z,99169.45
2022-09-12T13:49:57.453Z,99170.16
2022-09-12T13:52:31.155Z,99169.31
2022-09-12T13:55:01.095Z,99166.85
2022-09-12T13:57:38.563Z,99164.04
2022-09-12T14:00:22.814Z,99165.78
2022-09-12T14:03:11.072Z,99166.79
2022-09-12T14:05:44.965Z,99166.95
2022-09-12T14:08:17.235Z,99168.87
2022-09-12T14:10:50.448Z,99166.79
2022-09-12T14:13:25.339Z,99163.42
2022-09-12T14:15:56.332Z,99158.48
2022-09-12T14:18:31.436Z,99159.69
2022-09-12T14:21:10.777Z,99161.96
2022-09-12T14:23:42.822Z,99157.38
2022-09-12T14:26:13.773Z,99162.44
2022-09-12T14:28:49.729Z,99157.81
2022-09-12T14:31:23.088Z,99166.38
2022-09-12T14:33:52.426Z,99163.71
2022-09-12T14:36:35.857Z,99165.11
2022-09-12T14:39:28.304Z,99169.46
2022-09-12T14:42:12.860Z,99169.63
2022-09-12T14:44:43.489Z,99168.75
2022-09-12T14:47:16.179Z,99164.55
2022-09-12T14:49:44.550Z,99161.71
2022-09-12T14:52:31.051Z,99160.31
2022-09-12T14:55:21.557Z,99163.09
2022-09-12T14:58:12.036Z,99164.13
2022-09-12T15:01:00.496Z,99166.88
2022-09-12T15:03:52.096Z,99165.41
2022-09-12T15:06:29.613Z,99164.29
2022-09-12T15:09:02.498Z,99159.52
2022-09-12T15:11:30.568Z,99164.36
2022-09-12T15:13:58.933Z,99161.52
2022-09-12T15:16:27.220Z,99163.59
2022-09-12T15:18:55.291Z,99159.98
2022-09-12T15:21:23.363Z,99151.67
2022-09-12T15:23:52.583Z,99156.11
2022-09-12T15:26:31.895Z,99156.22
2022-09-12T15:29:00.070Z,99155.63
2022-09-12T15:31:31.421Z,99155.73
2022-09-12T15:34:02.464Z,99156.88
2022-09-12T15:36:31.044Z,99161.23
2022-09-12T15:38:59.117Z,99157.16
2022-09-12T15:41:32.410Z,99162.42
2022-09-12T15:44:01.405Z,99162.44
2022-09-12T15:46:30.136Z,99164.92
2022-09-12T15:48:58.367Z,99163.90
2022-09-12T15:51:26.435Z,99167.45
2022-09-12T15:53:54.608Z,99165.73
2022-09-12T15:56:23.296Z,99161.53
2022-09-12T15:58:59.374Z,99165.24
2022-09-12T16:01:29.476Z,99165.64
2022-09-12T16:03:58.261Z,99171.30
2022-09-12T16:06:28.071Z,99169.58
2022-09-12T16:08:56.143Z,99166.95
2022-09-12T16:11:26.371Z,99171.58
2022-09-12T16:13:56.911Z,99172.52
2022-09-12T16:16:25.131Z,99173.82
2022-09-12T16:18:53.447Z,99174.21
2022-09-12T16:21:21.722Z,99175.30
2022-09-12T16:23:49.971Z,99178.83
2022-09-12T16:26:18.484Z,99179.20
2022-09-12T16:28:46.551Z,99173.95
2022-09-12T16:31:15.131Z,99178.02
2022-09-12T16:33:43.411Z,99178.73
2022-09-12T16:36:14.658Z,99174.73
2022-09-12T16:38:44.190Z,99178.06
2022-09-12T16:41:14.363Z,99175.30
2022-09-12T16:43:43.255Z,99173.93
2022-09-12T16:46:14.079Z,99173.96
2022-09-12T16:48:52.997Z,99173.66
2022-09-12T16:51:24.585Z,99174.94
2022-09-12T16:53:54.093Z,99175.17
2022-09-12T16:56:22.882Z,99176.64
2022-09-12T16:58:51.736Z,99177.92
2022-09-12T17:01:22.946Z,99173.02
2022-09-12T17:03:57.643Z,99174.48
2022-09-12T17:06:26.858Z,99178.19
2022-09-12T17:09:04.220Z,99178.76
2022-09-12T17:11:38.857Z,99176.71
2022-09-12T17:14:08.736Z,99179.06
2022-09-12T17:16:42.777Z,99179.46
2022-09-12T17:19:21.230Z,99183.38
2022-09-12T17:21:50.268Z,99183.83
2022-09-12T17:24:19.616Z,99186.91
2022-09-12T17:26:47.719Z,99189.43
2022-09-12T17:29:16.944Z,99190.38
2022-09-12T17:31:46.561Z,99187.83
2022-09-12T17:34:15.438Z,99187.58
2022-09-12T17:36:45.265Z,99194.17
2022-09-12T17:39:14.917Z,99196.54
2022-09-12T17:41:43.384Z,99199.77
2022-09-12T17:44:13.904Z,99199.52
2022-09-12T17:46:43.026Z,99198.62
2022-09-12T17:49:14.108Z,99202.94
2022-09-12T17:51:43.720Z,99205.69
2022-09-12T17:54:18.144Z,99210.22
2022-09-12T17:56:47.427Z,99210.84
2022-09-12T17:59:19.769Z,99216.95
2022-09-12T18:02:06.302Z,99219.52
2022-09-12T18:04:34.418Z,99226.63
2022-09-12T18:07:02.517Z,99225.38
2022-09-12T18:09:31.037Z,99227.63
2022-09-12T18:11:59.628Z,99230.02
2022-09-12T18:14:28.408Z,99227.30
2022-09-12T18:16:57.424Z,99223.36
2022-09-12T18:19:26.731Z,99222.90
2022-09-12T18:21:56.095Z,99224.17
2022-09-12T18:24:24.504Z,99222.48
2022-09-12T18:26:52.882Z,99221.11
2022-09-12T18:29:21.162Z,99223.98
2022-09-12T18:31:49.948Z,99226.13
2022-09-12T18:34:18.530Z,99230.72
2022-09-12T18:36:54.487Z,99231.63
2022-09-12T18:39:26.821Z,99230.32
2022-09-12T18:41:56.053Z,99227.02
2022-09-12T18:44:24.284Z,99233.71
2022-09-12T18:46:52.506Z,99232.00
2022-09-12T18:49:20.578Z,99231.48
2022-09-12T18:51:48.756Z,99230.80
2022-09-12T18:54:18.043Z,99228.20
2022-09-12T18:56:46.328Z,99229.84
2022-09-12T18:59:15.139Z,99230.26
2022-09-12T19:01:43.910Z,99228.41
2022-09-12T19:04:13.647Z,99224.63
2022-09-12T19:06:44.552Z,99225.06
2022-09-12T19:09:15.109Z,99221.46
2022-09-12T19:11:50.049Z,99225.56
2022-09-12T19:14:23.681Z,99229.15
2022-09-12T19:16:52.785Z,99230.60
2022-09-12T19:19:21.601Z,99230.74
2022-09-12T19:21:49.680Z,99230.58
2022-09-12T19:24:17.846Z,99232.02
2022-09-12T19:26:46.331Z,99234.84
2022-09-12T19:29:16.800Z,99232.08
2022-09-12T19:31:46.259Z,99228.40
2022-09-12T19:34:15.665Z,99224.41
2022-09-12T19:36:46.354Z,99224.80
2022-09-12T19:39:17.651Z,99223.27
2022-09-12T19:41:46.019Z,99224.04
2022-09-12T19:44:14.596Z,99222.86
2022-09-12T19:46:42.983Z,99222.02
2022-09-12T19:49:13.267Z,99219.99
2022-09-12T19:51:42.096Z,99222.70
2022-09-12T19:54:10.270Z,99221.91
2022-09-12T19:56:38.441Z,99217.27
2022-09-12T19:59:06.614Z,99219.41
2022-09-12T20:01:37.235Z,99221.02
2022-09-12T20:04:07.042Z,99219.20
2022-09-12T20:06:35.539Z,99215.36
2022-09-12T20:09:04.021Z,99213.33
2022-09-12T20:11:32.297Z,99214.58
2022-09-12T20:14:00.675Z,99214.42
2022-09-12T20:16:29.942Z,99217.79
2022-09-12T20:19:03.912Z,99215.55
2022-09-12T20:21:34.413Z,99212.13
2022-09-12T20:24:05.863Z,99212.02
2022-09-12T20:26:34.548Z,99207.71
2022-09-12T20:29:04.176Z,99209.91
2022-09-12T20:31:33.594Z,99208.06
2022-09-12T20:34:02.219Z,99208.79
2022-09-12T20:36:30.536Z,99211.55
2022-09-12T20:39:01.395Z,99211.91
2022-09-12T20:41:32.349Z,99205.30
2022-09-12T20:44:00.354Z,99205.84
2022-09-12T20:46:29.158Z,99203.77
2022-09-12T20:48:58.763Z,99203.64
2022-09-12T20:51:29.848Z,99204.89
2022-09-12T20:54:00.538Z,99205.25
2022-09-12T20:56:29.243Z,99203.01
2022-09-12T20:58:58.524Z,99197.08
2022-09-12T21:01:28.783Z,99198.88
2022-09-12T21:03:57.458Z,99197.52
2022-09-12T21:06:25.606Z,99200.71
2022-09-12T21:08:58.591Z,99199.27
2022-09-12T21:11:28.508Z,99198.78
2022-09-12T21:13:57.407Z,99201.95
2022-09-12T21:16:25.615Z,99199.90
2022-09-12T21:18:56.406Z,99199.04
2022-09-12T21:21:25.299Z,99203.59
2022-09-12T21:23:55.622Z,99206.96
2022-09-12T21:26:23.692Z,99205.98
2022-09-12T21:28:51.767Z,99208.66
2022-09-12T21:31:20.230Z,99207.16
2022-09-12T21:33:48.710Z,99210.71
2022-09-12T21:36:17.316Z,99209.10
2022-09-12T21:38:45.381Z,99213.34
2022-09-12T21:41:16.017Z,99213.92
2022-09-12T21:43:45.429Z,99217.98
2022-09-12T21:46:13.643Z,99213.48
2022-09-12T21:48:43.010Z,99211.80
2022-09-12T21:51:11.066Z,99213.06
2022-09-12T21:53:39.236Z,99210.13
2022-09-12T21:56:09.020Z,99210.52
2022-09-12T21:58:37.632Z,99210.57
2022-09-12T22:01:08.691Z,99207.48
2022-09-12T22:03:37.237Z,99212.17
2022-09-12T22:06:06.923Z,99213.95
2022-09-12T22:08:37.905Z,99216.45
2022-09-12T22:11:09.767Z,99212.10
2022-09-12T22:13:42.291Z,99208.13
2022-09-12T22:16:11.580Z,99209.05
2022-09-12T22:18:40.255Z,99205.60
2022-09-12T22:21:13.109Z,99205.11
2022-09-12T22:23:59.919Z,99202.70
2022-09-12T22:26:28.590Z,99198.92
2022-09-12T22:28:57.394Z,99195.02
2022-09-12T22:31:27.182Z,99191.39
2022-09-12T22:33:57.429Z,99189.67
2022-09-12T22:36:30.435Z,99187.61
2022-09-12T22:39:00.180Z,99183.27
2022-09-12T22:41:28.712Z,99180.48
2022-09-12T22:43:57.331Z,99180.83
2022-09-12T22:46:26.149Z,99181.05
2022-09-12T22:48:55.849Z,99183.70
2022-09-12T22:51:24.068Z,99183.89
2022-09-12T22:53:52.264Z,99175.64
2022-09-12T22:56:20.413Z,99172.81
2022-09-12T22:58:48.792Z,99170.75
2022-09-12T23:01:17.353Z,99172.13
2022-09-12T23:03:45.613Z,99174.74
2022-09-12T23:06:13.927Z,99175.95
2022-09-12T23:08:42.647Z,99178.20
2022-09-12T23:11:13.654Z,99175.41
2022-09-12T23:13:45.037Z,99170.89
2022-09-12T23:16:19.351Z,99172.10
2022-09-12T23:18:48.352Z,99170.45
2022-09-12T23:21:18.947Z,99173.60
2022-09-12T23:23:47.016Z,99172.39
2022-09-12T23:26:21.534Z,99175.36
2022-09-12T23:28:53.092Z,99175.49
2022-09-12T23:31:23.414Z,99173.02
2022-09-12T23:33:56.403Z,99172.84
2022-09-12T23:36:25.909Z,99169.69
2022-09-12T23:38:55.911Z,99169.53
2022-09-12T23:41:24.959Z,99164.45
2022-09-12T23:43:53.296Z,99160.73
2022-09-12T23:46:21.679Z,99165.09
2022-09-12T23:48:50.132Z,99159.34
2022-09-12T23:51:18.302Z,99153.94
2022-09-12T23:53:46.287Z,99154.64
2022-09-12T23:56:14.472Z,99152.90
2022-09-12T23:58:42.652Z,99159.89
